Time;durP1;ratioP1;P1;durP2;ratioP2;P2;SDS_P1;SDS_P2;PMS_P1;PMS_P2;Temp;Humidity;BMP_temperature;BMP_pressure;BME280_temperature;BME280_humidity;BME280_pressure;Samples;Min_cycle;Max_cycle;Signal;HPM_P1;HPM_P2
2023/12/25 00:00:03;;;;;;;15.27;9.17;;;23.70;74.60;;;;;;5053558;28;20191;-86
2023/12/25 00:02:31;;;;;;;17.30;9.37;;;23.60;74.30;;;;;;5052280;28;20452;-87
2023/12/25 00:04:58;;;;;;;21.23;10.47;;;23.60;74.70;;;;;;5052554;28;20485;-88
2023/12/25 00:07:25;;;;;;;15.70;9.67;;;23.60;74.60;;;;;;5052574;28;20445;-87
2023/12/25 00:09:51;;;;;;;14.87;8.63;;;23.60;74.60;;;;;;5052788;28;20467;-87
2023/12/25 00:12:18;;;;;;;16.83;9.50;;;23.60;74.00;;;;;;5054143;28;20528;-87
2023/12/25 00:14:45;;;;;;;16.40;9.03;;;23.60;73.60;;;;;;5053804;28;20452;-87
2023/12/25 00:17:13;;;;;;;15.67;9.73;;;23.60;73.60;;;;;;5053322;28;20436;-87
2023/12/25 00:19:41;;;;;;;15.10;8.03;;;23.50;73.80;;;;;;5054326;28;20461;-87
2023/12/25 00:22:08;;;;;;;14.63;8.30;;;23.40;74.30;;;;;;5053578;28;20437;-87
2023/12/25 00:24:34;;;;;;;16.10;8.10;;;23.40;73.90;;;;;;5053740;28;20491;-87
2023/12/25 00:27:01;;;;;;;13.57;8.17;;;23.40;74.70;;;;;;5054089;28;20480;-87
2023/12/25 00:29:28;;;;;;;16.00;8.03;;;23.40;74.00;;;;;;5054289;28;20441;-88
2023/12/25 00:31:55;;;;;;;14.57;8.00;;;23.40;73.60;;;;;;5053962;28;20443;-88
2023/12/25 00:34:21;;;;;;;18.33;9.77;;;23.40;73.60;;;;;;5054098;28;20524;-87
2023/12/25 00:36:49;;;;;;;13.83;8.43;;;23.50;73.70;;;;;;5053973;28;20448;-87
2023/12/25 00:39:16;;;;;;;14.10;7.17;;;23.40;74.30;;;;;;5054012;28;20457;-87
2023/12/25 00:41:43;;;;;;;13.17;8.10;;;23.40;73.60;;;;;;5053928;28;20433;-87
2023/12/25 00:44:10;;;;;;;9.17;6.50;;;23.40;73.60;;;;;;5053849;28;20493;-87
2023/12/25 00:46:37;;;;;;;11.30;6.70;;;23.40;73.50;;;;;;5053712;28;20445;-87
2023/12/25 00:49:03;;;;;;;12.33;6.63;;;23.40;73.60;;;;;;5053739;28;20433;-88
2023/12/25 00:51:30;;;;;;;8.47;6.30;;;23.40;73.70;;;;;;5053606;28;20429;-88
2023/12/25 00:54:00;;;;;;;12.57;6.73;;;23.30;73.80;;;;;;5053703;28;20435;-88
2023/12/25 00:56:27;;;;;;;11.20;7.00;;;23.30;73.60;;;;;;5053672;28;20488;-87
2023/12/25 00:58:53;;;;;;;10.30;7.10;;;23.30;73.60;;;;;;5053544;28;20445;-87
2023/12/25 01:01:20;;;;;;;13.57;7.67;;;23.30;73.70;;;;;;5053757;28;20437;-87
2023/12/25 01:03:47;;;;;;;12.87;7.13;;;23.30;73.60;;;;;;5053715;28;20489;-87
2023/12/25 01:06:14;;;;;;;12.23;7.00;;;23.30;73.70;;;;;;5053384;28;20445;-88
2023/12/25 01:08:40;;;;;;;10.83;6.30;;;23.30;73.60;;;;;;5053453;28;20467;-88
2023/12/25 01:11:08;;;;;;;11.30;6.30;;;23.30;73.70;;;;;;5053333;28;20528;-88
2023/12/25 01:13:35;;;;;;;12.50;7.03;;;23.30;73.60;;;;;;5053279;28;20540;-88
2023/12/25 01:16:02;;;;;;;9.43;6.60;;;23.30;73.70;;;;;;5053261;28;20434;-88
2023/12/25 01:18:29;;;;;;;8.70;5.70;;;23.30;73.60;;;;;;5053297;28;20928;-88
2023/12/25 01:20:56;;;;;;;10.60;6.10;;;23.30;73.70;;;;;;5053118;28;20943;-87
2023/12/25 01:23:23;;;;;;;13.30;6.50;;;23.30;73.80;;;;;;5053020;28;20503;-88
2023/12/25 01:25:49;;;;;;;9.30;5.70;;;23.20;73.60;;;;;;5052104;28;20448;-88
2023/12/25 01:28:18;;;;;;;10.60;6.27;;;23.20;73.70;;;;;;5053181;28;20441;-88
2023/12/25 01:30:44;;;;;;;11.90;6.00;;;23.20;73.70;;;;;;5052990;28;20448;-88
2023/12/25 01:33:11;;;;;;;13.47;5.53;;;23.20;73.70;;;;;;5053137;28;20789;-88
2023/12/25 01:35:38;;;;;;;7.17;5.27;;;23.20;73.80;;;;;;5053044;28;20796;-88
2023/12/25 01:38:05;;;;;;;11.77;6.03;;;23.20;73.70;;;;;;5052977;28;20980;-88
2023/12/25 01:40:31;;;;;;;10.30;6.43;;;23.20;73.80;;;;;;5053202;28;20549;-87
2023/12/25 01:42:58;;;;;;;8.37;5.53;;;23.20;73.80;;;;;;5052948;28;20446;-88
2023/12/25 01:45:26;;;;;;;8.40;5.30;;;23.20;73.90;;;;;;5052967;28;21098;-88
2023/12/25 01:47:53;;;;;;;8.37;5.50;;;23.20;73.70;;;;;;5053020;28;20788;-88
2023/12/25 01:50:20;;;;;;;9.90;5.40;;;23.20;73.80;;;;;;5052953;28;20456;-88
2023/12/25 01:52:49;;;;;;;9.87;5.97;;;23.20;73.80;;;;;;5052827;28;20445;-88
2023/12/25 01:55:17;;;;;;;7.93;5.27;;;23.20;73.90;;;;;;5052859;28;20480;-88
2023/12/25 01:57:44;;;;;;;8.97;4.87;;;23.10;73.80;;;;;;5052818;28;20526;-88
2023/12/25 02:00:11;;;;;;;8.07;4.70;;;23.20;73.80;;;;;;5052909;28;20449;-88
2023/12/25 02:02:40;;;;;;;9.80;4.90;;;23.10;73.70;;;;;;5052790;28;20448;-88
2023/12/25 02:05:08;;;;;;;6.87;4.57;;;23.10;73.70;;;;;;5052744;28;20996;-88
2023/12/25 02:07:38;;;;;;;8.40;5.43;;;23.10;73.80;;;;;;5052996;28;20479;-88
2023/12/25 02:10:05;;;;;;;7.57;4.80;;;23.20;73.90;;;;;;5052703;28;20917;-89
2023/12/25 02:12:32;;;;;;;6.57;4.90;;;23.10;73.70;;;;;;5052761;28;20437;-88
2023/12/25 02:14:59;;;;;;;6.57;4.70;;;23.10;73.80;;;;;;5052937;28;20452;-88
2023/12/25 02:17:26;;;;;;;7.47;4.07;;;23.10;73.80;;;;;;5052699;28;20441;-88
2023/12/25 02:19:55;;;;;;;7.43;4.50;;;23.10;73.80;;;;;;5052624;28;20442;-88
2023/12/25 02:22:21;;;;;;;8.50;4.73;;;23.10;73.70;;;;;;5052572;28;20532;-88
2023/12/25 02:24:55;;;;;;;4.87;4.30;;;23.10;73.80;;;;;;5052615;28;20564;-87
2023/12/25 02:27:24;;;;;;;6.70;4.00;;;23.10;73.80;;;;;;5052428;28;20236;-88
2023/12/25 02:29:51;;;;;;;4.83;4.10;;;23.10;73.80;;;;;;5052407;28;20438;-88
2023/12/25 02:32:17;;;;;;;6.33;4.40;;;23.10;73.80;;;;;;5052601;28;20813;-88
2023/12/25 02:34:47;;;;;;;7.13;4.30;;;23.00;73.60;;;;;;5052818;28;20912;-88
2023/12/25 02:37:13;;;;;;;5.63;3.50;;;23.00;73.70;;;;;;5053419;28;20465;-88
2023/12/25 02:39:40;;;;;;;4.93;4.17;;;23.10;73.70;;;;;;5056156;28;20452;-88
2023/12/25 02:42:07;;;;;;;8.43;4.40;;;23.00;73.60;;;;;;5056232;28;20433;-89
2023/12/25 02:44:35;;;;;;;9.50;4.50;;;23.10;73.70;;;;;;5056223;28;20489;-88
2023/12/25 02:47:02;;;;;;;4.30;3.90;;;23.10;73.70;;;;;;5056041;28;20433;-88
2023/12/25 02:49:29;;;;;;;6.23;4.70;;;23.00;73.60;;;;;;5056211;28;20440;-87
2023/12/25 02:51:55;;;;;;;5.70;3.93;;;23.00;73.50;;;;;;5055774;28;20436;-88
2023/12/25 02:54:22;;;;;;;6.43;4.10;;;23.10;73.70;;;;;;5056213;28;20446;-88
2023/12/25 02:56:49;;;;;;;5.30;3.53;;;23.10;73.70;;;;;;5055906;28;20437;-88
2023/12/25 02:59:16;;;;;;;6.63;4.20;;;23.00;73.50;;;;;;5056183;28;20433;-88
2023/12/25 03:01:44;;;;;;;6.30;4.27;;;23.00;73.40;;;;;;5055703;28;20938;-87
2023/12/25 03:04:10;;;;;;;6.50;3.97;;;23.00;73.40;;;;;;5055669;28;20492;-88
2023/12/25 03:06:37;;;;;;;4.87;3.70;;;23.00;73.40;;;;;;5056001;28;20442;-88
2023/12/25 03:09:04;;;;;;;4.90;3.67;;;23.00;73.40;;;;;;5055737;28;20495;-88
2023/12/25 03:11:31;;;;;;;6.17;3.33;;;23.00;73.40;;;;;;5055393;28;20440;-88
2023/12/25 03:13:58;;;;;;;5.00;3.50;;;23.00;73.50;;;;;;5055403;28;20536;-88
2023/12/25 03:16:24;;;;;;;4.97;3.57;;;23.00;73.50;;;;;;5055462;28;20453;-88
2023/12/25 03:18:52;;;;;;;4.63;3.43;;;23.00;73.40;;;;;;5055480;28;20441;-88
2023/12/25 03:21:21;;;;;;;5.17;3.60;;;23.00;73.40;;;;;;5055454;28;20442;-88
2023/12/25 03:23:47;;;;;;;7.90;3.60;;;23.00;73.30;;;;;;5055196;28;20809;-88
2023/12/25 03:26:14;;;;;;;3.20;3.00;;;23.00;73.30;;;;;;5055094;28;20468;-88
2023/12/25 03:28:41;;;;;;;6.03;3.53;;;23.00;73.30;;;;;;5055280;28;20433;-88
2023/12/25 03:31:08;;;;;;;3.27;2.87;;;23.00;73.40;;;;;;5055220;28;20437;-88
2023/12/25 03:33:35;;;;;;;3.90;3.33;;;23.00;73.30;;;;;;5055174;28;20449;-88
2023/12/25 03:36:05;;;;;;;3.97;3.13;;;23.10;73.50;;;;;;5055388;28;20956;-88
2023/12/25 03:38:32;;;;;;;5.17;3.37;;;23.00;73.30;;;;;;5055266;28;20528;-88
2023/12/25 03:40:58;;;;;;;4.77;3.30;;;23.00;73.30;;;;;;5054951;28;20436;-88
2023/12/25 03:43:25;;;;;;;4.00;3.40;;;23.00;73.30;;;;;;5055060;28;20533;-88
2023/12/25 03:45:52;;;;;;;3.80;2.60;;;23.00;73.30;;;;;;5055066;28;20485;-88
2023/12/25 03:48:20;;;;;;;4.43;3.17;;;23.00;73.30;;;;;;5054589;28;20452;-88
2023/12/25 03:50:47;;;;;;;3.20;2.80;;;23.00;73.30;;;;;;5054234;28;20523;-88
2023/12/25 03:53:15;;;;;;;2.87;2.50;;;22.90;73.10;;;;;;5054776;28;20603;-88
2023/12/25 03:55:41;;;;;;;3.57;2.80;;;22.90;73.00;;;;;;5054720;28;20447;-88
2023/12/25 03:58:08;;;;;;;3.03;2.60;;;22.90;73.10;;;;;;5054686;28;20441;-89
2023/12/25 04:00:36;;;;;;;3.20;2.63;;;22.90;73.00;;;;;;5054652;28;20929;-88
2023/12/25 04:03:02;;;;;;;3.40;2.20;;;22.90;73.00;;;;;;5054599;28;20441;-88
2023/12/25 04:05:29;;;;;;;3.80;3.00;;;22.90;73.80;;;;;;5054710;28;20830;-88
2023/12/25 04:07:56;;;;;;;3.83;2.67;;;22.90;73.00;;;;;;5054155;28;20824;-88
2023/12/25 04:10:24;;;;;;;3.80;2.30;;;22.90;73.00;;;;;;5054569;28;20441;-88
2023/12/25 04:12:51;;;;;;;2.93;2.00;;;22.90;72.90;;;;;;5054575;28;20433;-88
2023/12/25 04:15:18;;;;;;;3.90;2.90;;;22.90;73.00;;;;;;5054475;28;20438;-89
2023/12/25 04:17:45;;;;;;;4.33;2.90;;;22.90;73.00;;;;;;5054423;28;20441;-88
2023/12/25 04:20:12;;;;;;;3.30;2.53;;;22.90;73.00;;;;;;5054359;28;20445;-88
2023/12/25 04:22:39;;;;;;;5.27;2.63;;;22.90;72.90;;;;;;5054374;28;20438;-88
2023/12/25 04:25:06;;;;;;;3.27;2.60;;;22.90;72.90;;;;;;5054101;28;20485;-87
2023/12/25 04:27:34;;;;;;;2.80;2.10;;;22.90;73.00;;;;;;5053984;28;20469;-88
2023/12/25 04:30:02;;;;;;;3.93;2.60;;;22.90;72.80;;;;;;5054239;28;20441;-88
2023/12/25 04:32:29;;;;;;;3.97;2.80;;;22.90;72.90;;;;;;5054078;28;20441;-88
2023/12/25 04:34:55;;;;;;;3.10;2.50;;;22.90;72.80;;;;;;5054136;28;20525;-88
2023/12/25 04:37:22;;;;;;;3.03;2.40;;;23.00;73.10;;;;;;5054228;28;20441;-88
2023/12/25 04:39:49;;;;;;;3.70;2.10;;;22.80;72.80;;;;;;5053875;28;20461;-89
2023/12/25 04:42:16;;;;;;;3.97;2.20;;;22.80;72.80;;;;;;5053790;28;20477;-88
2023/12/25 04:44:44;;;;;;;3.00;2.40;;;22.90;72.90;;;;;;5053801;28;20571;-88
2023/12/25 04:47:11;;;;;;;4.00;2.40;;;22.90;72.80;;;;;;5053936;28;20441;-88
2023/12/25 04:49:37;;;;;;;3.83;2.30;;;22.80;72.70;;;;;;5053726;28;20951;-88
2023/12/25 04:52:05;;;;;;;2.77;2.10;;;22.80;72.70;;;;;;5053726;28;20943;-88
2023/12/25 04:54:31;;;;;;;3.17;2.17;;;22.80;72.90;;;;;;5053691;28;20447;-88
2023/12/25 04:56:58;;;;;;;2.37;2.17;;;22.80;72.70;;;;;;5053798;28;20426;-88
2023/12/25 04:59:25;;;;;;;3.03;2.00;;;22.80;72.70;;;;;;5053637;28;20443;-89
2023/12/25 05:01:53;;;;;;;3.30;2.00;;;23.00;73.10;;;;;;5053397;28;20433;-88
2023/12/25 05:04:20;;;;;;;2.47;2.13;;;22.80;72.70;;;;;;5053448;28;20448;-88
2023/12/25 05:06:47;;;;;;;4.50;2.47;;;22.80;72.70;;;;;;5053365;28;20433;-88
2023/12/25 05:09:14;;;;;;;3.00;2.30;;;22.80;72.70;;;;;;5053259;28;20458;-88
2023/12/25 05:11:40;;;;;;;2.50;2.30;;;22.80;72.60;;;;;;5053438;28;20437;-88
2023/12/25 05:14:07;;;;;;;2.00;1.80;;;22.90;72.80;;;;;;5053348;28;20448;-88
2023/12/25 05:16:34;;;;;;;2.30;2.10;;;22.80;72.60;;;;;;5053311;28;20453;-88
2023/12/25 05:19:02;;;;;;;2.50;1.83;;;22.80;72.70;;;;;;5053322;28;20441;-88
2023/12/25 05:21:29;;;;;;;2.17;1.63;;;22.80;72.70;;;;;;5053151;28;20451;-88
2023/12/25 05:23:55;;;;;;;2.87;2.20;;;22.80;72.70;;;;;;5053006;28;20429;-88
2023/12/25 05:26:23;;;;;;;2.43;1.73;;;22.80;72.70;;;;;;5052920;28;20500;-88
2023/12/25 05:28:49;;;;;;;2.40;2.00;;;22.80;72.60;;;;;;5053056;28;21032;-88
2023/12/25 05:31:16;;;;;;;2.50;2.03;;;22.90;72.80;;;;;;5035552;28;20433;-88
2023/12/25 05:33:43;;;;;;;2.00;1.70;;;22.80;72.70;;;;;;5053123;28;20434;-88
2023/12/25 05:36:12;;;;;;;3.10;2.03;;;22.80;72.60;;;;;;5053392;28;20441;-88
2023/12/25 05:38:39;;;;;;;1.70;1.57;;;22.80;72.60;;;;;;5052845;28;20453;-89
2023/12/25 05:41:05;;;;;;;2.07;1.80;;;22.80;72.60;;;;;;5053080;28;20479;-88
2023/12/25 05:43:32;;;;;;;2.90;1.73;;;22.80;72.70;;;;;;5053057;28;20434;-88
2023/12/25 05:45:59;;;;;;;2.37;2.00;;;22.80;72.60;;;;;;5052856;28;20485;-88
2023/12/25 05:48:26;;;;;;;2.83;2.07;;;22.80;72.60;;;;;;5053186;28;20437;-88
2023/12/25 05:50:52;;;;;;;3.30;1.90;;;22.70;72.50;;;;;;5052879;28;20442;-87
2023/12/25 05:53:20;;;;;;;2.23;2.00;;;22.80;72.50;;;;;;5052778;28;20441;-88
2023/12/25 05:55:47;;;;;;;1.90;1.63;;;22.80;72.60;;;;;;5052937;28;20459;-88
2023/12/25 05:58:14;;;;;;;2.67;2.03;;;22.80;72.50;;;;;;5052990;28;20445;-88
2023/12/25 06:00:41;;;;;;;2.17;1.80;;;22.80;72.60;;;;;;5052717;28;20437;-88
2023/12/25 06:03:07;;;;;;;2.73;1.70;;;22.70;72.40;;;;;;5052823;28;20442;-88
2023/12/25 06:05:35;;;;;;;2.63;1.40;;;22.80;72.50;;;;;;5052636;28;20949;-88
2023/12/25 06:08:02;;;;;;;2.73;1.93;;;22.70;72.40;;;;;;5052508;28;20453;-88
2023/12/25 06:10:30;;;;;;;2.50;1.63;;;22.70;72.40;;;;;;5052730;28;20437;-88
2023/12/25 06:12:57;;;;;;;2.23;1.73;;;22.80;72.50;;;;;;5054561;28;20562;-88
2023/12/25 06:15:23;;;;;;;1.93;1.60;;;22.70;72.40;;;;;;5056860;28;20433;-88
2023/12/25 06:17:50;;;;;;;1.90;1.80;;;22.70;72.30;;;;;;5056733;28;20433;-88
2023/12/25 06:20:17;;;;;;;2.30;1.67;;;22.80;72.40;;;;;;5056546;28;20460;-88
2023/12/25 06:22:44;;;;;;;2.20;1.87;;;22.70;72.40;;;;;;5056656;28;20444;-88
2023/12/25 06:25:11;;;;;;;2.13;1.70;;;22.70;72.40;;;;;;5056335;28;20822;-88
2023/12/25 06:27:39;;;;;;;2.40;1.60;;;22.70;72.40;;;;;;5056118;28;20813;-88
2023/12/25 06:30:07;;;;;;;2.00;1.60;;;22.70;72.30;;;;;;5056476;28;20441;-88
2023/12/25 06:32:33;;;;;;;1.87;1.57;;;22.70;72.30;;;;;;5056342;28;20467;-88
2023/12/25 06:35:00;;;;;;;2.07;1.80;;;22.70;72.30;;;;;;5056436;28;20440;-88
2023/12/25 06:37:27;;;;;;;2.33;1.40;;;22.70;72.30;;;;;;5056294;28;20433;-88
2023/12/25 06:39:54;;;;;;;2.60;1.83;;;22.70;72.20;;;;;;5056129;28;20433;-88
2023/12/25 06:42:20;;;;;;;3.00;1.60;;;22.70;72.30;;;;;;5056158;28;20807;-88
2023/12/25 06:44:48;;;;;;;2.20;1.67;;;22.70;72.20;;;;;;5056047;28;20438;-88
2023/12/25 06:47:15;;;;;;;1.90;1.37;;;22.70;72.20;;;;;;5056220;28;20445;-88
2023/12/25 06:49:42;;;;;;;1.97;1.77;;;22.70;72.20;;;;;;5055988;28;20437;-88
2023/12/25 06:52:09;;;;;;;1.43;1.33;;;22.70;72.30;;;;;;5056097;28;20437;-88
2023/12/25 06:54:35;;;;;;;1.90;1.53;;;22.70;72.30;;;;;;5055937;28;20954;-88
2023/12/25 06:57:02;;;;;;;2.30;1.97;;;22.70;72.30;;;;;;5056104;28;20459;-88
2023/12/25 06:59:29;;;;;;;1.90;1.67;;;22.70;72.20;;;;;;5056096;28;20456;-88
2023/12/25 07:01:57;;;;;;;1.50;1.40;;;22.70;72.20;;;;;;5055770;28;20425;-89
2023/12/25 07:04:24;;;;;;;1.60;1.50;;;22.70;72.20;;;;;;5055977;28;20948;-89
2023/12/25 07:06:51;;;;;;;2.00;1.80;;;22.70;72.30;;;;;;5056041;28;20484;-88
2023/12/25 07:09:19;;;;;;;2.00;1.80;;;22.70;72.20;;;;;;5055546;28;20456;-87
2023/12/25 07:11:45;;;;;;;2.00;1.27;;;22.70;72.20;;;;;;5055660;28;20473;-88
2023/12/25 07:14:14;;;;;;;1.60;1.33;;;22.70;72.20;;;;;;5055714;28;20441;-88
2023/12/25 07:16:41;;;;;;;1.30;1.00;;;22.70;72.20;;;;;;5055565;28;20448;-89
2023/12/25 07:19:09;;;;;;;2.97;1.23;;;22.70;72.20;;;;;;5055600;28;20449;-88
2023/12/25 07:21:35;;;;;;;1.70;1.40;;;22.70;72.20;;;;;;5055448;28;20508;-88
2023/12/25 07:24:02;;;;;;;1.60;1.30;;;22.90;72.50;;;;;;5055579;28;20437;-88
2023/12/25 07:26:29;;;;;;;2.80;1.33;;;22.70;72.20;;;;;;5055328;28;20550;-88
2023/12/25 07:28:56;;;;;;;1.50;1.07;;;22.70;72.20;;;;;;5055170;28;20429;-88
2023/12/25 07:31:23;;;;;;;1.60;1.47;;;22.70;72.20;;;;;;5055120;28;20532;-88
2023/12/25 07:33:51;;;;;;;1.63;1.27;;;22.70;72.10;;;;;;5055339;28;20438;-88
2023/12/25 07:36:19;;;;;;;1.80;1.33;;;22.70;72.20;;;;;;5055364;28;20847;-88
2023/12/25 07:38:46;;;;;;;1.97;1.30;;;22.70;72.20;;;;;;5055078;28;20788;-88
2023/12/25 07:41:13;;;;;;;2.30;1.33;;;22.70;72.20;;;;;;5055104;28;20925;-89
2023/12/25 07:43:41;;;;;;;1.90;1.43;;;22.80;73.20;;;;;;5055156;28;20563;-88
2023/12/25 07:46:09;;;;;;;1.40;1.30;;;22.70;72.10;;;;;;5054921;28;20498;-88
2023/12/25 07:48:36;;;;;;;1.37;1.00;;;22.70;72.20;;;;;;5055170;28;20937;-88
2023/12/25 07:51:03;;;;;;;1.30;0.90;;;22.80;72.30;;;;;;5054940;28;20433;-88
2023/12/25 07:53:32;;;;;;;1.60;1.40;;;22.70;72.20;;;;;;5054781;28;20455;-88
2023/12/25 07:55:59;;;;;;;1.30;1.00;;;22.70;72.10;;;;;;5054733;28;20441;-88
2023/12/25 07:58:25;;;;;;;1.40;1.30;;;22.70;72.20;;;;;;5045774;28;20438;-88
2023/12/25 08:00:52;;;;;;;1.43;1.20;;;22.70;72.10;;;;;;5041815;28;20437;-88
2023/12/25 08:03:20;;;;;;;2.03;1.20;;;22.70;72.20;;;;;;5047082;28;21007;-88
2023/12/25 08:05:47;;;;;;;2.27;1.20;;;22.70;72.10;;;;;;5044618;28;20489;-88
2023/12/25 08:08:13;;;;;;;1.30;1.00;;;22.70;72.10;;;;;;5042718;28;20457;-87
2023/12/25 08:10:54;;;;;;;2.07;1.20;;;22.70;72.20;;;;;;5050388;28;20950;-87
2023/12/25 08:13:21;;;;;;;2.20;1.40;;;22.70;72.20;;;;;;5041719;28;20431;-88
2023/12/25 08:15:47;;;;;;;1.43;1.10;;;22.70;72.10;;;;;;5034899;28;20430;-88
2023/12/25 08:18:14;;;;;;;1.30;1.10;;;22.70;72.10;;;;;;5034928;28;20438;-86
2023/12/25 08:20:41;;;;;;;1.80;0.97;;;22.70;72.10;;;;;;5034825;28;20438;-89
2023/12/25 08:23:08;;;;;;;1.57;1.10;;;22.70;72.10;;;;;;5034538;28;20450;-86
2023/12/25 08:25:34;;;;;;;1.40;1.03;;;22.70;72.10;;;;;;5035026;28;20477;-87
2023/12/25 08:28:03;;;;;;;1.53;1.10;;;22.60;72.00;;;;;;5034547;28;20485;-87
2023/12/25 08:30:30;;;;;;;1.50;1.07;;;22.70;72.10;;;;;;5034797;28;20446;-89
2023/12/25 08:32:57;;;;;;;1.30;1.10;;;22.70;72.20;;;;;;5034555;28;20438;-86
2023/12/25 08:35:23;;;;;;;1.50;1.07;;;22.70;72.10;;;;;;5033977;28;20450;-86
2023/12/25 08:37:50;;;;;;;1.40;1.20;;;22.70;72.40;;;;;;5034359;28;20462;-87
2023/12/25 08:40:18;;;;;;;1.93;1.20;;;22.70;72.10;;;;;;5034338;28;20945;-88
2023/12/25 08:42:45;;;;;;;1.73;1.27;;;22.80;72.30;;;;;;5034358;28;20439;-88
2023/12/25 08:45:14;;;;;;;1.30;1.00;;;22.70;72.10;;;;;;5034302;28;20482;-88
2023/12/25 08:47:41;;;;;;;1.93;1.30;;;22.70;72.10;;;;;;5034330;28;20470;-84
2023/12/25 08:50:08;;;;;;;1.40;1.10;;;22.60;72.30;;;;;;5034327;28;20460;-93
2023/12/25 08:52:35;;;;;;;1.27;1.03;;;22.60;72.10;;;;;;5034066;28;20764;-86
2023/12/25 08:55:02;;;;;;;1.70;1.23;;;22.60;71.90;;;;;;5034111;28;20438;-86
2023/12/25 08:57:30;;;;;;;2.13;1.53;;;22.60;72.60;;;;;;5034382;28;20430;-85
2023/12/25 08:59:56;;;;;;;1.83;1.17;;;22.60;72.00;;;;;;5034240;28;20468;-86
2023/12/25 09:02:24;;;;;;;1.30;1.07;;;22.60;71.90;;;;;;5033768;28;20434;-86
2023/12/25 09:04:51;;;;;;;1.20;0.90;;;22.60;71.70;;;;;;5033940;28;20450;-86
2023/12/25 09:07:18;;;;;;;3.83;1.07;;;22.60;71.80;;;;;;5033649;28;20509;-91
2023/12/25 09:09:45;;;;;;;1.70;1.10;;;22.60;71.80;;;;;;5033539;28;20455;-89
2023/12/25 09:12:11;;;;;;;2.17;1.20;;;22.60;71.90;;;;;;5033946;28;20482;-88
2023/12/25 09:14:39;;;;;;;1.47;1.00;;;22.60;71.70;;;;;;5034127;28;20936;-91
2023/12/25 09:17:06;;;;;;;1.20;0.93;;;22.60;71.90;;;;;;5033522;28;20533;-86
2023/12/25 09:19:34;;;;;;;1.60;1.00;;;22.70;71.90;;;;;;5033651;28;20442;-86
2023/12/25 09:22:01;;;;;;;1.83;1.10;;;22.60;71.90;;;;;;5033844;28;20426;-89
2023/12/25 09:24:28;;;;;;;1.70;1.03;;;22.60;72.00;;;;;;5033703;28;20441;-86
2023/12/25 09:26:54;;;;;;;2.33;1.00;;;22.70;72.10;;;;;;5033213;28;20497;-85
2023/12/25 09:29:21;;;;;;;1.27;0.90;;;22.60;72.00;;;;;;5033579;28;20446;-85
2023/12/25 09:31:48;;;;;;;1.80;1.20;;;22.60;72.20;;;;;;5034101;28;20794;-85
2023/12/25 09:34:15;;;;;;;2.97;1.13;;;22.60;70.10;;;;;;5038289;28;20544;-84
2023/12/25 09:36:43;;;;;;;1.30;0.97;;;22.50;71.30;;;;;;5031797;28;20450;-84
2023/12/25 09:39:10;;;;;;;1.20;0.93;;;22.60;71.80;;;;;;5032763;28;20457;-84
2023/12/25 09:41:38;;;;;;;1.30;0.90;;;22.60;71.80;;;;;;5032720;28;20805;-84
2023/12/25 09:44:06;;;;;;;2.07;1.00;;;22.60;71.80;;;;;;5032480;28;20438;-84
2023/12/25 09:46:33;;;;;;;1.30;1.00;;;22.60;71.90;;;;;;5031805;28;20490;-84
2023/12/25 09:49:00;;;;;;;1.30;0.90;;;22.70;72.00;;;;;;5032520;28;20446;-85
2023/12/25 09:51:28;;;;;;;1.70;1.13;;;22.60;72.00;;;;;;5032828;28;20438;-89
2023/12/25 09:53:56;;;;;;;3.60;1.07;;;22.60;72.10;;;;;;5031848;28;20501;-84
2023/12/25 09:56:24;;;;;;;3.93;1.97;;;22.60;72.10;;;;;;5032221;28;20435;-85
2023/12/25 09:58:53;;;;;;;1.30;0.97;;;22.60;72.10;;;;;;5031747;28;20974;-84
2023/12/25 10:01:21;;;;;;;2.80;1.20;;;22.60;72.10;;;;;;5031795;28;20933;-84
2023/12/25 10:03:49;;;;;;;2.03;1.30;;;22.60;72.20;;;;;;5031714;28;20444;-84
2023/12/25 10:06:15;;;;;;;1.33;1.20;;;22.60;72.20;;;;;;5032018;28;20478;-84
2023/12/25 10:08:42;;;;;;;1.50;1.00;;;22.60;72.30;;;;;;5033078;28;20545;-84
2023/12/25 10:11:14;;;;;;;1.70;0.90;;;22.60;72.30;;;;;;5033144;28;20452;-84
2023/12/25 10:13:41;;;;;;;1.30;0.90;;;22.70;72.50;;;;;;5033224;28;20431;-84
2023/12/25 10:16:08;;;;;;;1.20;1.00;;;22.60;72.40;;;;;;5033203;28;20941;-84
2023/12/25 10:18:37;;;;;;;1.40;0.90;;;22.60;72.30;;;;;;5033125;28;20804;-90
2023/12/25 10:21:04;;;;;;;2.00;1.30;;;22.60;72.20;;;;;;5033094;28;20544;-85
2023/12/25 10:23:32;;;;;;;1.50;0.90;;;22.60;72.30;;;;;;5033002;28;20798;-84
2023/12/25 10:26:02;;;;;;;1.50;0.90;;;22.50;72.20;;;;;;5032525;28;20443;-85
2023/12/25 10:28:32;;;;;;;1.20;0.90;;;22.60;72.40;;;;;;5032890;28;20441;-84
2023/12/25 10:31:00;;;;;;;2.60;1.23;;;22.60;72.20;;;;;;5032959;28;20496;-84
2023/12/25 10:33:26;;;;;;;1.30;0.90;;;22.60;72.30;;;;;;5033114;28;20442;-85
2023/12/25 10:36:03;;;;;;;2.13;0.97;;;22.60;72.30;;;;;;5032992;28;20442;-84
2023/12/25 10:38:31;;;;;;;1.60;1.10;;;22.60;72.30;;;;;;5032796;28;20454;-84
2023/12/25 10:40:58;;;;;;;2.13;1.37;;;22.60;72.20;;;;;;5032928;28;20441;-84
2023/12/25 10:43:26;;;;;;;1.47;0.83;;;22.60;72.30;;;;;;5032796;28;20445;-85
2023/12/25 10:45:56;;;;;;;1.13;0.73;;;22.60;72.30;;;;;;5032830;28;20442;-84
2023/12/25 10:48:25;;;;;;;1.20;0.80;;;22.60;72.30;;;;;;5032695;28;20534;-85
2023/12/25 10:50:53;;;;;;;1.40;0.90;;;22.60;72.30;;;;;;5032766;28;20440;-86
2023/12/25 10:53:20;;;;;;;1.20;1.00;;;22.60;72.30;;;;;;5032719;28;20434;-90
2023/12/25 10:55:48;;;;;;;1.30;0.80;;;22.50;72.10;;;;;;5032722;28;20807;-84
2023/12/25 10:58:17;;;;;;;1.60;0.83;;;22.60;72.20;;;;;;5033465;28;20799;-84
2023/12/25 11:00:49;;;;;;;1.20;0.90;;;22.60;72.30;;;;;;5036144;28;20794;-91
2023/12/25 11:03:17;;;;;;;1.50;0.90;;;22.50;72.20;;;;;;5036158;28;20446;-84
2023/12/25 11:05:45;;;;;;;1.20;1.00;;;22.60;72.10;;;;;;5036056;28;20437;-84
2023/12/25 11:08:13;;;;;;;1.30;1.00;;;22.60;72.20;;;;;;5035835;28;20587;-84
2023/12/25 11:10:40;;;;;;;1.20;0.80;;;22.60;72.20;;;;;;5035756;28;20762;-90
2023/12/25 11:13:07;;;;;;;1.50;1.10;;;22.60;72.20;;;;;;5035893;28;20456;-85
2023/12/25 11:15:34;;;;;;;1.40;1.10;;;22.60;72.20;;;;;;5035811;28;20435;-84
2023/12/25 11:18:01;;;;;;;1.20;0.87;;;22.50;72.10;;;;;;5035633;28;20956;-85
2023/12/25 11:20:30;;;;;;;1.47;0.90;;;22.60;72.20;;;;;;5035933;28;20430;-84
2023/12/25 11:22:57;;;;;;;1.47;0.90;;;22.50;72.10;;;;;;5035657;28;20435;-85
2023/12/25 11:25:28;;;;;;;1.20;0.80;;;22.50;72.00;;;;;;5035804;28;20484;-85
2023/12/25 11:27:56;;;;;;;2.10;0.90;;;22.50;72.00;;;;;;5035395;28;20494;-85
2023/12/25 11:30:24;;;;;;;1.17;0.80;;;22.50;72.10;;;;;;5035380;28;20452;-84
2023/12/25 11:32:52;;;;;;;1.10;0.80;;;22.50;72.10;;;;;;5045667;28;20445;-85
2023/12/25 11:35:25;;;;;;;2.17;1.07;;;22.50;72.00;;;;;;5046123;28;20450;-88
2023/12/25 11:38:29;;;;;;;1.30;0.90;;;22.60;72.10;;;;;;5053415;28;20557;-87
2023/12/25 11:41:04;;;;;;;1.43;0.93;;;22.60;72.00;;;;;;5040482;28;20487;-86
2023/12/25 11:43:32;;;;;;;2.70;0.97;;;22.50;72.10;;;;;;5055183;28;20443;-89
2023/12/25 11:46:02;;;;;;;2.17;0.80;;;22.50;72.90;;;;;;5055217;28;20445;-86
2023/12/25 11:48:31;;;;;;;1.30;1.00;;;22.50;72.30;;;;;;5055838;28;20539;-85
2023/12/25 11:51:02;;;;;;;1.20;0.80;;;22.50;72.30;;;;;;5055160;28;20441;-85
2023/12/25 11:53:37;;;;;;;1.53;0.83;;;22.50;72.30;;;;;;5054943;28;21002;-85
2023/12/25 11:56:06;;;;;;;1.10;0.70;;;22.50;72.00;;;;;;5055081;28;20523;-88
2023/12/25 11:58:33;;;;;;;1.77;0.93;;;22.50;72.30;;;;;;5054998;28;20441;-85
2023/12/25 12:01:00;;;;;;;1.73;1.23;;;22.50;72.30;;;;;;5054765;28;20437;-85
2023/12/25 12:03:27;;;;;;;2.03;0.83;;;22.50;72.30;;;;;;5054672;28;20433;-89
2023/12/25 12:05:54;;;;;;;1.40;0.80;;;22.50;72.30;;;;;;5054807;28;20452;-88
2023/12/25 12:08:20;;;;;;;1.63;0.83;;;22.50;72.50;;;;;;5054689;28;20495;-85
2023/12/25 12:10:49;;;;;;;6.87;1.47;;;22.50;72.40;;;;;;5054166;28;20448;-85
2023/12/25 12:13:17;;;;;;;3.13;1.03;;;22.60;72.70;;;;;;5054633;28;20434;-85
2023/12/25 12:15:44;;;;;;;2.50;0.70;;;22.60;72.70;;;;;;5055095;28;20429;-86
2023/12/25 12:18:11;;;;;;;1.60;0.90;;;22.60;72.70;;;;;;5054608;28;20448;-86
2023/12/25 12:20:38;;;;;;;1.27;0.77;;;22.50;72.40;;;;;;5054436;28;20560;-85
2023/12/25 12:23:12;;;;;;;1.77;0.87;;;22.50;72.80;;;;;;5054612;28;20432;-85
2023/12/25 12:25:39;;;;;;;1.97;0.97;;;22.50;72.70;;;;;;5054616;28;20430;-85
2023/12/25 12:28:08;;;;;;;1.97;1.10;;;22.50;72.70;;;;;;5054208;28;20493;-85
2023/12/25 12:30:36;;;;;;;1.50;1.10;;;22.50;72.80;;;;;;5054256;28;20558;-84
2023/12/25 12:33:04;;;;;;;1.63;0.90;;;22.60;73.60;;;;;;5051715;28;20448;-85
2023/12/25 12:35:31;;;;;;;3.27;0.70;;;22.60;72.60;;;;;;5054356;28;20806;-84
2023/12/25 12:37:59;;;;;;;2.60;1.10;;;22.60;72.80;;;;;;5054223;28;20458;-90
2023/12/25 12:40:26;;;;;;;1.30;0.90;;;22.60;72.80;;;;;;5054335;28;20532;-84
2023/12/25 12:42:53;;;;;;;1.27;0.90;;;22.60;72.80;;;;;;5054383;28;20446;-85
2023/12/25 12:45:22;;;;;;;1.43;0.83;;;22.60;73.00;;;;;;5054612;28;20443;-85